createdAt,value
2022-12-03T00:00:13.499Z,88.71
2022-12-03T00:04:06.046Z,88.77
2022-12-03T00:07:58.678Z,88.47
2022-12-03T00:11:51.443Z,88.71
2022-12-03T00:15:43.944Z,88.60
2022-12-03T00:19:36.973Z,88.91
2022-12-03T00:23:29.601Z,88.72
2022-12-03T00:27:22.298Z,88.13
2022-12-03T00:31:14.866Z,88.35
2022-12-03T00:35:07.835Z,88.48
2022-12-03T00:39:00.200Z,88.30
2022-12-03T00:42:52.772Z,88.07
2022-12-03T00:46:45.539Z,88.91
2022-12-03T00:50:38.654Z,88.66
2022-12-03T00:54:32.333Z,88.51
2022-12-03T00:58:24.997Z,88.23
2022-12-03T01:02:17.706Z,87.84
2022-12-03T01:06:10.616Z,88.12
2022-12-03T01:10:04.451Z,88.59
2022-12-03T01:13:56.992Z,88.83
2022-12-03T01:17:49.520Z,88.58
2022-12-03T01:21:47.871Z,88.55
2022-12-03T01:25:40.441Z,88.63
2022-12-03T01:29:32.872Z,88.85
2022-12-03T01:33:25.348Z,88.77
2022-12-03T01:37:18.762Z,88.90
2022-12-03T01:41:12.201Z,88.89
2022-12-03T01:45:05.921Z,89.48
2022-12-03T01:48:58.576Z,89.18
2022-12-03T01:52:52.262Z,89.08
2022-12-03T01:56:45.656Z,89.19
2022-12-03T02:00:38.333Z,88.97
2022-12-03T02:04:31.100Z,88.98
2022-12-03T02:08:39.360Z,88.98
2022-12-03T02:12:34.356Z,89.54
2022-12-03T02:16:26.926Z,88.98
2022-12-03T02:20:20.048Z,89.35
2022-12-03T02:24:43.880Z,89.02
2022-12-03T02:28:36.654Z,89.56
2022-12-03T02:32:29.314Z,89.17
2022-12-03T02:36:22.087Z,89.33
2022-12-03T02:40:19.548Z,89.41
2022-12-03T02:44:12.364Z,89.50
2022-12-03T02:48:38.349Z,89.63
2022-12-03T02:52:31.170Z,90.01
2022-12-03T02:56:29.694Z,89.30
2022-12-03T03:00:23.080Z,89.29
2022-12-03T03:04:15.768Z,89.12
2022-12-03T03:08:09.928Z,89.57
2022-12-03T03:12:02.544Z,89.35
2022-12-03T03:15:55.787Z,89.23
2022-12-03T03:19:48.285Z,90.01
2022-12-03T03:23:40.781Z,89.99
2022-12-03T03:27:34.092Z,88.94
2022-12-03T03:31:26.908Z,89.45
2022-12-03T03:35:19.584Z,89.80
2022-12-03T03:39:12.533Z,89.39
2022-12-03T03:43:06.207Z,89.47
2022-12-03T03:46:58.871Z,89.55
2022-12-03T03:50:52.411Z,89.57
2022-12-03T03:54:45.216Z,90.03
2022-12-03T03:58:38.234Z,89.45
2022-12-03T04:02:32.385Z,89.79
2022-12-03T04:06:24.895Z,90.02
2022-12-03T04:10:36.021Z,90.07
2022-12-03T04:14:28.569Z,90.06
2022-12-03T04:18:40.075Z,89.64
2022-12-03T04:22:41.655Z,90.23
2022-12-03T04:26:53.071Z,89.67
2022-12-03T04:30:45.551Z,89.90
2022-12-03T04:34:57.131Z,89.74
2022-12-03T04:38:49.805Z,90.49
2022-12-03T04:42:42.210Z,89.82
2022-12-03T04:46:34.752Z,89.95
2022-12-03T04:50:27.144Z,90.12
2022-12-03T04:54:19.703Z,89.89
2022-12-03T04:58:12.079Z,89.49
2022-12-03T05:02:06.038Z,90.04
2022-12-03T05:05:58.674Z,89.92
2022-12-03T05:09:52.094Z,90.20
2022-12-03T05:13:44.728Z,90.20
2022-12-03T05:17:37.110Z,89.67
2022-12-03T05:21:29.738Z,90.10
2022-12-03T05:25:22.492Z,89.72
2022-12-03T05:29:15.576Z,89.76
2022-12-03T05:33:08.114Z,89.87
2022-12-03T05:37:00.817Z,89.91
2022-12-03T05:40:53.447Z,89.54
2022-12-03T05:44:45.928Z,89.11
2022-12-03T05:48:38.585Z,89.66
2022-12-03T05:52:30.951Z,89.64
2022-12-03T05:56:23.548Z,89.30
2022-12-03T06:00:27.165Z,88.72
2022-12-03T06:04:19.674Z,89.19
2022-12-03T06:08:12.184Z,89.04
2022-12-03T06:12:06.643Z,89.24
2022-12-03T06:15:59.429Z,88.94
2022-12-03T06:19:52.421Z,89.00
2022-12-03T06:23:45.048Z,88.81
2022-12-03T06:27:37.661Z,88.98
2022-12-03T06:31:30.210Z,89.01
2022-12-03T06:35:23.022Z,88.66
2022-12-03T06:39:16.483Z,88.56
2022-12-03T06:43:09.560Z,88.27
2022-12-03T06:47:02.470Z,88.14
2022-12-03T06:50:54.871Z,88.19
2022-12-03T06:54:47.439Z,87.98
2022-12-03T06:58:40.245Z,87.58
2022-12-03T07:02:33.050Z,87.98
2022-12-03T07:06:25.613Z,87.72
2022-12-03T07:10:19.549Z,87.67
2022-12-03T07:14:12.509Z,86.74
2022-12-03T07:18:05.378Z,87.44
2022-12-03T07:21:58.183Z,87.51
2022-12-03T07:25:50.726Z,87.13
2022-12-03T07:29:43.608Z,86.84
2022-12-03T07:33:36.060Z,86.75
2022-12-03T07:37:28.636Z,86.77
2022-12-03T07:41:21.489Z,86.19
2022-12-03T07:45:14.031Z,85.99
2022-12-03T07:49:06.471Z,86.36
2022-12-03T07:52:59.319Z,86.07
2022-12-03T07:56:55.506Z,85.79
2022-12-03T08:00:52.344Z,86.45
2022-12-03T08:04:44.898Z,86.45
2022-12-03T08:08:37.412Z,85.87
2022-12-03T08:12:43.063Z,85.86
2022-12-03T08:16:37.870Z,85.72
2022-12-03T08:20:35.118Z,86.11
2022-12-03T08:24:27.756Z,85.70
2022-12-03T08:28:26.800Z,85.67
2022-12-03T08:32:19.629Z,85.32
2022-12-03T08:36:29.766Z,85.00
2022-12-03T08:40:35.608Z,85.07
2022-12-03T08:44:32.792Z,84.44
2022-12-03T08:48:37.026Z,84.10
2022-12-03T08:52:34.561Z,83.88
2022-12-03T08:56:28.360Z,84.62
2022-12-03T09:00:23.737Z,84.06
2022-12-03T09:04:41.090Z,83.89
2022-12-03T09:08:33.671Z,83.23
2022-12-03T09:12:26.375Z,83.04
2022-12-03T09:16:19.979Z,83.36
2022-12-03T09:20:12.635Z,83.58
2022-12-03T09:24:05.487Z,83.55
2022-12-03T09:27:57.991Z,83.59
2022-12-03T09:31:50.785Z,82.86
2022-12-03T09:35:43.498Z,83.48
2022-12-03T09:39:36.352Z,83.67
2022-12-03T09:44:02.836Z,83.91
2022-12-03T09:47:49.286Z,83.94
2022-12-03T09:51:42.207Z,83.50
2022-12-03T09:55:34.960Z,83.46
2022-12-03T09:59:31.695Z,83.25
2022-12-03T10:03:30.089Z,82.64
2022-12-03T10:07:38.196Z,83.33
2022-12-03T10:11:31.675Z,83.02
2022-12-03T10:15:25.014Z,83.01
2022-12-03T10:19:27.689Z,83.31
2022-12-03T10:23:26.206Z,83.24
2022-12-03T10:27:30.046Z,83.27
2022-12-03T10:31:36.179Z,83.12
2022-12-03T10:35:41.392Z,83.45
2022-12-03T10:39:56.855Z,82.96
2022-12-03T10:43:49.443Z,83.01
2022-12-03T10:47:43.274Z,82.00
2022-12-03T10:51:38.132Z,82.61
2022-12-03T10:55:37.709Z,83.08
2022-12-03T10:59:33.269Z,82.67
2022-12-03T11:03:28.460Z,82.29
2022-12-03T11:07:22.307Z,82.61
2022-12-03T11:11:23.804Z,82.64
2022-12-03T11:15:16.876Z,82.61
2022-12-03T11:19:39.362Z,82.44
2022-12-03T11:23:47.120Z,82.42
2022-12-03T11:27:40.472Z,82.06
2022-12-03T11:31:37.804Z,81.86
2022-12-03T11:35:58.182Z,82.51
2022-12-03T11:39:51.073Z,81.30
2022-12-03T11:43:52.943Z,81.12
2022-12-03T11:48:12.147Z,81.01
2022-12-03T11:52:20.180Z,81.60
2022-12-03T11:56:19.087Z,81.62
2022-12-03T12:00:23.821Z,81.65
2022-12-03T12:04:38.025Z,81.64
2022-12-03T12:08:31.318Z,81.60
2022-12-03T12:12:54.951Z,81.86
2022-12-03T12:16:51.205Z,81.72
2022-12-03T12:20:43.995Z,81.36
2022-12-03T12:24:43.803Z,81.40
2022-12-03T12:28:36.351Z,81.48
2022-12-03T12:32:31.680Z,81.44
2022-12-03T12:36:24.084Z,80.92
2022-12-03T12:40:18.460Z,80.84
2022-12-03T12:44:13.285Z,81.07
2022-12-03T12:48:14.653Z,80.74
2022-12-03T12:52:14.187Z,81.39
2022-12-03T12:56:06.593Z,80.77
2022-12-03T12:59:59.286Z,80.96
2022-12-03T13:03:53.214Z,81.45
2022-12-03T13:07:45.909Z,80.96
2022-12-03T13:11:46.007Z,80.71
2022-12-03T13:15:48.993Z,81.03
2022-12-03T13:19:47.594Z,81.39
2022-12-03T13:23:43.554Z,81.29
2022-12-03T13:27:36.311Z,80.61
2022-12-03T13:31:33.792Z,81.22
2022-12-03T13:35:32.052Z,80.65
2022-12-03T13:39:31.632Z,80.92
2022-12-03T13:43:24.362Z,80.76
2022-12-03T13:47:21.269Z,80.99
2022-12-03T13:51:24.914Z,81.09
2022-12-03T13:55:26.643Z,81.17
2022-12-03T13:59:25.754Z,80.83
2022-12-03T14:03:18.849Z,80.77
2022-12-03T14:07:11.485Z,80.75
2022-12-03T14:11:04.346Z,79.95
2022-12-03T14:14:57.660Z,80.50
2022-12-03T14:18:50.275Z,80.93
2022-12-03T14:22:42.760Z,80.16
2022-12-03T14:26:35.478Z,80.65
2022-12-03T14:30:28.051Z,81.24
2022-12-03T14:34:20.660Z,80.15
2022-12-03T14:38:13.191Z,80.75
2022-12-03T14:42:15.040Z,80.56
2022-12-03T14:46:07.917Z,80.02
2022-12-03T14:50:00.383Z,80.20
2022-12-03T14:53:52.951Z,80.38
2022-12-03T14:57:45.525Z,80.13
2022-12-03T15:01:38.058Z,80.80
2022-12-03T15:05:30.693Z,80.45
2022-12-03T15:09:23.321Z,79.86
2022-12-03T15:13:16.367Z,80.07
2022-12-03T15:17:09.055Z,80.18
2022-12-03T15:21:02.290Z,80.44
2022-12-03T15:24:54.903Z,80.32
2022-12-03T15:28:48.501Z,80.58
2022-12-03T15:32:41.322Z,79.91
2022-12-03T15:36:33.934Z,80.32
2022-12-03T15:40:27.496Z,79.96
2022-12-03T15:44:20.049Z,80.26
2022-12-03T15:48:13.880Z,80.77
2022-12-03T15:52:08.385Z,80.15
2022-12-03T15:56:01.117Z,80.46
2022-12-03T15:59:55.370Z,80.25
2022-12-03T16:03:48.544Z,80.57
2022-12-03T16:07:41.323Z,80.72
2022-12-03T16:11:34.330Z,81.18
2022-12-03T16:15:27.546Z,80.66
2022-12-03T16:19:20.825Z,81.79
2022-12-03T16:23:13.439Z,80.39
2022-12-03T16:27:06.549Z,81.15
2022-12-03T16:30:59.648Z,80.44
2022-12-03T16:34:53.682Z,80.74
2022-12-03T16:38:46.822Z,80.94
2022-12-03T16:42:40.258Z,81.11
2022-12-03T16:46:33.532Z,81.02
2022-12-03T16:50:29.903Z,80.99
2022-12-03T16:54:23.394Z,81.44
2022-12-03T16:58:16.350Z,81.22
2022-12-03T17:02:13.809Z,81.36
2022-12-03T17:06:07.086Z,81.48
2022-12-03T17:10:00.621Z,81.51
2022-12-03T17:13:53.223Z,81.71
2022-12-03T17:17:45.766Z,81.81
2022-12-03T17:21:38.838Z,81.56
2022-12-03T17:25:31.379Z,81.99
2022-12-03T17:29:23.916Z,81.81
2022-12-03T17:33:16.712Z,81.61
2022-12-03T17:37:09.428Z,81.48
2022-12-03T17:41:02.459Z,81.42
2022-12-03T17:44:54.930Z,81.65
2022-12-03T17:48:47.686Z,81.21
2022-12-03T17:52:40.417Z,81.59
2022-12-03T17:56:33.453Z,81.08
2022-12-03T18:00:26.230Z,81.83
2022-12-03T18:04:18.944Z,81.53
2022-12-03T18:08:11.940Z,81.01
2022-12-03T18:12:05.066Z,81.98
2022-12-03T18:15:57.682Z,81.83
2022-12-03T18:19:50.521Z,81.51
2022-12-03T18:23:43.535Z,81.59
2022-12-03T18:27:36.332Z,81.30
2022-12-03T18:31:28.978Z,81.70
2022-12-03T18:35:21.945Z,81.37
2022-12-03T18:39:26.652Z,81.69
2022-12-03T18:43:19.511Z,81.28
2022-12-03T18:47:18.836Z,81.49
2022-12-03T18:51:19.155Z,80.20
2022-12-03T18:55:18.966Z,80.87
2022-12-03T18:59:12.786Z,81.45
2022-12-03T19:03:07.629Z,80.99
2022-12-03T19:07:01.052Z,80.99
2022-12-03T19:10:59.736Z,80.96
2022-12-03T19:14:52.675Z,81.09
2022-12-03T19:18:47.220Z,81.93
2022-12-03T19:22:40.215Z,81.75
2022-12-03T19:26:33.020Z,82.57
2022-12-03T19:30:25.659Z,82.32
2022-12-03T19:34:19.677Z,81.61
2022-12-03T19:38:12.665Z,81.91
2022-12-03T19:42:05.914Z,82.06
2022-12-03T19:46:06.163Z,82.64
2022-12-03T19:49:59.192Z,83.50
2022-12-03T19:53:52.250Z,83.22
2022-12-03T19:57:45.288Z,82.93
2022-12-03T20:01:41.001Z,82.78
2022-12-03T20:05:38.904Z,82.85
2022-12-03T20:09:32.441Z,83.24
2022-12-03T20:13:25.651Z,83.39
2022-12-03T20:17:18.658Z,83.43
2022-12-03T20:21:13.406Z,83.53
2022-12-03T20:25:06.895Z,83.67
2022-12-03T20:29:00.207Z,83.59
2022-12-03T20:32:53.170Z,83.12
2022-12-03T20:36:46.352Z,83.38
2022-12-03T20:40:42.078Z,83.30
2022-12-03T20:44:34.693Z,83.50
2022-12-03T20:48:27.662Z,83.47
2022-12-03T20:52:20.766Z,83.09
2022-12-03T20:56:37.799Z,83.15
2022-12-03T21:00:31.805Z,83.45
2022-12-03T21:04:24.589Z,83.40
2022-12-03T21:08:33.017Z,83.49
2022-12-03T21:12:30.339Z,83.34
2022-12-03T21:16:51.913Z,83.59
2022-12-03T21:20:45.442Z,83.47
2022-12-03T21:24:38.187Z,83.92
2022-12-03T21:28:30.843Z,83.65
2022-12-03T21:32:23.585Z,84.54
2022-12-03T21:36:17.017Z,84.21
2022-12-03T21:40:10.233Z,84.22
2022-12-03T21:44:03.576Z,84.72
2022-12-03T21:47:56.531Z,84.97
2022-12-03T21:51:49.412Z,84.56
2022-12-03T21:55:42.941Z,84.49
2022-12-03T21:59:36.067Z,84.14
2022-12-03T22:03:28.750Z,84.49
2022-12-03T22:07:21.332Z,83.85
2022-12-03T22:11:20.791Z,83.92
2022-12-03T22:15:18.391Z,84.08
2022-12-03T22:19:11.125Z,84.10
2022-12-03T22:23:03.649Z,83.59
2022-12-03T22:26:56.351Z,83.50
2022-12-03T22:30:48.861Z,83.21
2022-12-03T22:34:44.381Z,82.73
2022-12-03T22:38:37.073Z,83.46
2022-12-03T22:42:29.524Z,83.58
2022-12-03T22:46:22.200Z,83.33
2022-12-03T22:50:15.206Z,83.75
2022-12-03T22:54:07.867Z,83.71
2022-12-03T22:58:00.116Z,83.74
2022-12-03T23:01:53.292Z,84.25
2022-12-03T23:05:46.086Z,84.12
2022-12-03T23:09:38.411Z,84.63
2022-12-03T23:13:32.120Z,84.88
2022-12-03T23:17:24.635Z,84.66
2022-12-03T23:21:28.525Z,84.68
2022-12-03T23:25:22.715Z,85.03
2022-12-03T23:29:15.258Z,84.42
2022-12-03T23:33:07.613Z,84.65
2022-12-03T23:37:00.293Z,84.78
2022-12-03T23:40:53.197Z,84.91
2022-12-03T23:44:45.639Z,85.43
2022-12-03T23:48:38.699Z,85.04
2022-12-03T23:52:31.765Z,85.26
2022-12-03T23:56:30.000Z,85.20
